sensor_id;sensor_type;location;lat;lon;timestamp;P1;durP1;ratioP1;P2;durP2;ratioP2
9844;SDS011;4961;50.782;6.080;2022-09-14T00:01:32;9.93;;;8.40;;
9844;SDS011;4961;50.782;6.080;2022-09-14T00:04:03;9.23;;;7.57;;
9844;SDS011;4961;50.782;6.080;2022-09-14T00:06:33;8.77;;;7.87;;
9844;SDS011;4961;50.782;6.080;2022-09-14T00:09:01;12.27;;;8.13;;
9844;SDS011;4961;50.782;6.080;2022-09-14T00:11:34;10.97;;;8.73;;
9844;SDS011;4961;50.782;6.080;2022-09-14T00:14:04;11.27;;;8.70;;
9844;SDS011;4961;50.782;6.080;2022-09-14T00:16:33;10.60;;;8.40;;
9844;SDS011;4961;50.782;6.080;2022-09-14T00:19:04;10.03;;;8.90;;
9844;SDS011;4961;50.782;6.080;2022-09-14T00:21:33;10.27;;;9.10;;
9844;SDS011;4961;50.782;6.080;2022-09-14T00:24:03;10.43;;;9.33;;
9844;SDS011;4961;50.782;6.080;2022-09-14T00:26:35;18.00;;;9.93;;
9844;SDS011;4961;50.782;6.080;2022-09-14T00:29:04;11.17;;;10.10;;
9844;SDS011;4961;50.782;6.080;2022-09-14T00:31:33;11.73;;;10.27;;
9844;SDS011;4961;50.782;6.080;2022-09-14T00:34:04;13.43;;;11.27;;
9844;SDS011;4961;50.782;6.080;2022-09-14T00:36:36;13.50;;;11.67;;
9844;SDS011;4961;50.782;6.080;2022-09-14T00:39:06;12.63;;;10.60;;
9844;SDS011;4961;50.782;6.080;2022-09-14T00:41:36;12.50;;;11.20;;
9844;SDS011;4961;50.782;6.080;2022-09-14T00:44:52;11.97;;;10.70;;
9844;SDS011;4961;50.782;6.080;2022-09-14T00:47:13;14.13;;;11.33;;
9844;SDS011;4961;50.782;6.080;2022-09-14T00:49:42;11.63;;;10.43;;
9844;SDS011;4961;50.782;6.080;2022-09-14T00:52:11;13.60;;;11.50;;
9844;SDS011;4961;50.782;6.080;2022-09-14T00:54:44;14.30;;;11.57;;
9844;SDS011;4961;50.782;6.080;2022-09-14T00:57:16;12.87;;;11.47;;
9844;SDS011;4961;50.782;6.080;2022-09-14T00:59:45;13.57;;;11.60;;
9844;SDS011;4961;50.782;6.080;2022-09-14T01:02:15;13.20;;;11.87;;
9844;SDS011;4961;50.782;6.080;2022-09-14T01:04:45;15.30;;;11.57;;
9844;SDS011;4961;50.782;6.080;2022-09-14T01:07:19;15.00;;;12.43;;
9844;SDS011;4961;50.782;6.080;2022-09-14T01:09:58;12.87;;;11.57;;
9844;SDS011;4961;50.782;6.080;2022-09-14T01:12:37;14.13;;;12.40;;
9844;SDS011;4961;50.782;6.080;2022-09-14T01:15:16;18.03;;;14.40;;
9844;SDS011;4961;50.782;6.080;2022-09-14T01:17:50;19.37;;;13.73;;
9844;SDS011;4961;50.782;6.080;2022-09-14T01:20:24;17.60;;;14.97;;
9844;SDS011;4961;50.782;6.080;2022-09-14T01:23:03;17.57;;;14.57;;
9844;SDS011;4961;50.782;6.080;2022-09-14T01:25:39;17.53;;;15.63;;
9844;SDS011;4961;50.782;6.080;2022-09-14T01:28:27;18.20;;;14.97;;
9844;SDS011;4961;50.782;6.080;2022-09-14T01:31:00;16.27;;;14.23;;
9844;SDS011;4961;50.782;6.080;2022-09-14T01:33:34;21.63;;;14.37;;
9844;SDS011;4961;50.782;6.080;2022-09-14T01:36:08;17.53;;;15.20;;
9844;SDS011;4961;50.782;6.080;2022-09-14T01:38:41;18.57;;;14.17;;
9844;SDS011;4961;50.782;6.080;2022-09-14T01:41:14;16.53;;;14.37;;
9844;SDS011;4961;50.782;6.080;2022-09-14T01:43:48;16.23;;;14.17;;
9844;SDS011;4961;50.782;6.080;2022-09-14T01:46:21;14.67;;;13.07;;
9844;SDS011;4961;50.782;6.080;2022-09-14T01:48:52;16.10;;;13.50;;
9844;SDS011;4961;50.782;6.080;2022-09-14T01:51:29;15.53;;;13.30;;
9844;SDS011;4961;50.782;6.080;2022-09-14T01:54:04;17.17;;;13.60;;
9844;SDS011;4961;50.782;6.080;2022-09-14T01:56:37;14.83;;;12.77;;
9844;SDS011;4961;50.782;6.080;2022-09-14T01:59:13;16.07;;;13.50;;
9844;SDS011;4961;50.782;6.080;2022-09-14T02:01:46;16.20;;;11.40;;
9844;SDS011;4961;50.782;6.080;2022-09-14T02:04:20;15.57;;;13.47;;
9844;SDS011;4961;50.782;6.080;2022-09-14T02:06:54;18.20;;;13.03;;
9844;SDS011;4961;50.782;6.080;2022-09-14T02:09:23;17.83;;;13.40;;
9844;SDS011;4961;50.782;6.080;2022-09-14T02:11:53;13.00;;;11.67;;
9844;SDS011;4961;50.782;6.080;2022-09-14T02:14:27;15.67;;;13.30;;
9844;SDS011;4961;50.782;6.080;2022-09-14T02:16:57;16.13;;;11.97;;
9844;SDS011;4961;50.782;6.080;2022-09-14T02:19:25;13.53;;;12.00;;
9844;SDS011;4961;50.782;6.080;2022-09-14T02:21:58;11.97;;;10.70;;
9844;SDS011;4961;50.782;6.080;2022-09-14T02:24:26;20.77;;;11.57;;
9844;SDS011;4961;50.782;6.080;2022-09-14T02:26:55;18.23;;;11.67;;
9844;SDS011;4961;50.782;6.080;2022-09-14T02:29:25;17.50;;;12.43;;
9844;SDS011;4961;50.782;6.080;2022-09-14T02:31:59;16.20;;;12.57;;
9844;SDS011;4961;50.782;6.080;2022-09-14T02:34:37;16.73;;;12.93;;
9844;SDS011;4961;50.782;6.080;2022-09-14T02:37:16;16.63;;;13.57;;
9844;SDS011;4961;50.782;6.080;2022-09-14T02:39:49;15.80;;;12.57;;
9844;SDS011;4961;50.782;6.080;2022-09-14T02:42:25;14.23;;;12.70;;
9844;SDS011;4961;50.782;6.080;2022-09-14T02:45:02;15.57;;;12.83;;
9844;SDS011;4961;50.782;6.080;2022-09-14T02:47:40;12.80;;;11.47;;
9844;SDS011;4961;50.782;6.080;2022-09-14T02:50:17;16.43;;;12.43;;
9844;SDS011;4961;50.782;6.080;2022-09-14T02:52:50;19.00;;;13.30;;
9844;SDS011;4961;50.782;6.080;2022-09-14T02:55:25;16.10;;;12.30;;
9844;SDS011;4961;50.782;6.080;2022-09-14T02:57:58;13.73;;;12.27;;
9844;SDS011;4961;50.782;6.080;2022-09-14T03:00:31;16.73;;;13.03;;
9844;SDS011;4961;50.782;6.080;2022-09-14T03:03:03;14.87;;;12.90;;
9844;SDS011;4961;50.782;6.080;2022-09-14T03:05:33;18.23;;;13.67;;
9844;SDS011;4961;50.782;6.080;2022-09-14T03:08:02;21.20;;;12.70;;
9844;SDS011;4961;50.782;6.080;2022-09-14T03:10:31;18.33;;;14.10;;
9844;SDS011;4961;50.782;6.080;2022-09-14T03:13:01;14.13;;;12.33;;
9844;SDS011;4961;50.782;6.080;2022-09-14T03:15:29;20.80;;;12.67;;
9844;SDS011;4961;50.782;6.080;2022-09-14T03:17:57;18.60;;;13.83;;
9844;SDS011;4961;50.782;6.080;2022-09-14T03:20:27;16.07;;;14.03;;
9844;SDS011;4961;50.782;6.080;2022-09-14T03:22:57;21.80;;;14.20;;
9844;SDS011;4961;50.782;6.080;2022-09-14T03:25:26;16.33;;;13.33;;
9844;SDS011;4961;50.782;6.080;2022-09-14T03:27:57;17.97;;;13.73;;
9844;SDS011;4961;50.782;6.080;2022-09-14T03:30:26;17.73;;;12.97;;
9844;SDS011;4961;50.782;6.080;2022-09-14T03:32:54;19.33;;;14.67;;
9844;SDS011;4961;50.782;6.080;2022-09-14T03:35:24;17.07;;;13.53;;
9844;SDS011;4961;50.782;6.080;2022-09-14T03:37:55;17.97;;;15.57;;
9844;SDS011;4961;50.782;6.080;2022-09-14T03:40:29;19.60;;;15.77;;
9844;SDS011;4961;50.782;6.080;2022-09-14T03:42:57;19.97;;;15.63;;
9844;SDS011;4961;50.782;6.080;2022-09-14T03:45:25;23.20;;;17.47;;
9844;SDS011;4961;50.782;6.080;2022-09-14T03:47:53;21.77;;;17.10;;
9844;SDS011;4961;50.782;6.080;2022-09-14T03:50:22;21.37;;;17.40;;
9844;SDS011;4961;50.782;6.080;2022-09-14T03:52:50;22.63;;;16.90;;
9844;SDS011;4961;50.782;6.080;2022-09-14T03:55:20;22.50;;;17.67;;
9844;SDS011;4961;50.782;6.080;2022-09-14T03:57:51;19.03;;;16.20;;
9844;SDS011;4961;50.782;6.080;2022-09-14T04:00:21;27.83;;;17.27;;
9844;SDS011;4961;50.782;6.080;2022-09-14T04:02:49;22.90;;;15.80;;
9844;SDS011;4961;50.782;6.080;2022-09-14T04:05:17;22.80;;;16.83;;
9844;SDS011;4961;50.782;6.080;2022-09-14T04:07:47;22.03;;;16.20;;
9844;SDS011;4961;50.782;6.080;2022-09-14T04:10:15;19.87;;;15.50;;
9844;SDS011;4961;50.782;6.080;2022-09-14T04:12:45;19.33;;;13.93;;
9844;SDS011;4961;50.782;6.080;2022-09-14T04:15:13;18.13;;;14.03;;
9844;SDS011;4961;50.782;6.080;2022-09-14T04:17:42;19.37;;;12.93;;
9844;SDS011;4961;50.782;6.080;2022-09-14T04:20:10;17.20;;;13.73;;
9844;SDS011;4961;50.782;6.080;2022-09-14T04:22:38;20.27;;;13.07;;
9844;SDS011;4961;50.782;6.080;2022-09-14T04:25:07;13.90;;;11.93;;
9844;SDS011;4961;50.782;6.080;2022-09-14T04:27:35;17.23;;;12.67;;
9844;SDS011;4961;50.782;6.080;2022-09-14T04:30:05;13.13;;;11.73;;
9844;SDS011;4961;50.782;6.080;2022-09-14T04:32:34;14.10;;;11.50;;
9844;SDS011;4961;50.782;6.080;2022-09-14T04:35:02;15.10;;;10.90;;
9844;SDS011;4961;50.782;6.080;2022-09-14T04:37:31;16.93;;;11.07;;
9844;SDS011;4961;50.782;6.080;2022-09-14T04:40:00;17.70;;;10.90;;
9844;SDS011;4961;50.782;6.080;2022-09-14T04:42:29;15.00;;;11.50;;
9844;SDS011;4961;50.782;6.080;2022-09-14T04:44:57;15.67;;;10.80;;
9844;SDS011;4961;50.782;6.080;2022-09-14T04:47:28;10.67;;;9.47;;
9844;SDS011;4961;50.782;6.080;2022-09-14T04:49:56;15.07;;;10.27;;
9844;SDS011;4961;50.782;6.080;2022-09-14T04:52:24;12.17;;;10.00;;
9844;SDS011;4961;50.782;6.080;2022-09-14T04:54:52;11.77;;;9.70;;
9844;SDS011;4961;50.782;6.080;2022-09-14T04:57:20;10.50;;;8.80;;
9844;SDS011;4961;50.782;6.080;2022-09-14T04:59:49;10.77;;;8.90;;
9844;SDS011;4961;50.782;6.080;2022-09-14T05:02:17;11.83;;;8.87;;
9844;SDS011;4961;50.782;6.080;2022-09-14T05:04:46;9.73;;;7.77;;
9844;SDS011;4961;50.782;6.080;2022-09-14T05:07:15;13.27;;;8.80;;
9844;SDS011;4961;50.782;6.080;2022-09-14T05:09:43;7.97;;;7.17;;
9844;SDS011;4961;50.782;6.080;2022-09-14T05:12:11;10.40;;;8.07;;
9844;SDS011;4961;50.782;6.080;2022-09-14T05:14:40;10.60;;;8.17;;
9844;SDS011;4961;50.782;6.080;2022-09-14T05:17:08;11.93;;;7.80;;
9844;SDS011;4961;50.782;6.080;2022-09-14T05:19:36;9.07;;;7.57;;
9844;SDS011;4961;50.782;6.080;2022-09-14T05:22:06;6.13;;;5.63;;
9844;SDS011;4961;50.782;6.080;2022-09-14T05:24:34;7.07;;;6.10;;
9844;SDS011;4961;50.782;6.080;2022-09-14T05:27:02;7.93;;;6.80;;
9844;SDS011;4961;50.782;6.080;2022-09-14T05:29:30;8.07;;;6.40;;
9844;SDS011;4961;50.782;6.080;2022-09-14T05:31:59;6.87;;;6.17;;
9844;SDS011;4961;50.782;6.080;2022-09-14T05:34:27;10.33;;;6.23;;
9844;SDS011;4961;50.782;6.080;2022-09-14T05:36:55;7.60;;;5.90;;
9844;SDS011;4961;50.782;6.080;2022-09-14T05:39:25;6.83;;;6.33;;
9844;SDS011;4961;50.782;6.080;2022-09-14T05:41:53;6.17;;;5.60;;
9844;SDS011;4961;50.782;6.080;2022-09-14T05:44:21;6.60;;;6.00;;
9844;SDS011;4961;50.782;6.080;2022-09-14T05:46:50;6.70;;;6.10;;
9844;SDS011;4961;50.782;6.080;2022-09-14T05:49:18;8.10;;;7.30;;
9844;SDS011;4961;50.782;6.080;2022-09-14T05:51:46;7.53;;;6.90;;
9844;SDS011;4961;50.782;6.080;2022-09-14T05:54:14;6.87;;;6.37;;
9844;SDS011;4961;50.782;6.080;2022-09-14T05:56:44;6.87;;;6.27;;
9844;SDS011;4961;50.782;6.080;2022-09-14T05:59:13;5.50;;;5.17;;
9844;SDS011;4961;50.782;6.080;2022-09-14T06:01:41;6.30;;;5.83;;
9844;SDS011;4961;50.782;6.080;2022-09-14T06:04:10;7.27;;;5.07;;
9844;SDS011;4961;50.782;6.080;2022-09-14T06:06:38;4.67;;;4.37;;
9844;SDS011;4961;50.782;6.080;2022-09-14T06:09:17;4.30;;;4.00;;
9844;SDS011;4961;50.782;6.080;2022-09-14T06:11:46;4.60;;;4.17;;
9844;SDS011;4961;50.782;6.080;2022-09-14T06:14:15;5.67;;;4.97;;
9844;SDS011;4961;50.782;6.080;2022-09-14T06:16:45;4.40;;;4.10;;
9844;SDS011;4961;50.782;6.080;2022-09-14T06:19:13;5.80;;;4.70;;
9844;SDS011;4961;50.782;6.080;2022-09-14T06:21:41;6.50;;;4.43;;
9844;SDS011;4961;50.782;6.080;2022-09-14T06:24:11;5.23;;;4.90;;
9844;SDS011;4961;50.782;6.080;2022-09-14T06:26:39;4.83;;;4.63;;
9844;SDS011;4961;50.782;6.080;2022-09-14T06:29:09;5.33;;;4.93;;
9844;SDS011;4961;50.782;6.080;2022-09-14T06:31:37;5.87;;;5.37;;
9844;SDS011;4961;50.782;6.080;2022-09-14T06:34:05;5.23;;;4.93;;
9844;SDS011;4961;50.782;6.080;2022-09-14T06:36:33;5.53;;;5.10;;
9844;SDS011;4961;50.782;6.080;2022-09-14T06:39:02;4.60;;;4.40;;
9844;SDS011;4961;50.782;6.080;2022-09-14T06:41:31;5.10;;;4.70;;
9844;SDS011;4961;50.782;6.080;2022-09-14T06:44:00;4.43;;;4.13;;
9844;SDS011;4961;50.782;6.080;2022-09-14T06:46:30;4.43;;;4.03;;
9844;SDS011;4961;50.782;6.080;2022-09-14T06:49:00;5.00;;;4.60;;
9844;SDS011;4961;50.782;6.080;2022-09-14T06:51:32;4.63;;;4.33;;
9844;SDS011;4961;50.782;6.080;2022-09-14T06:54:01;3.67;;;3.47;;
9844;SDS011;4961;50.782;6.080;2022-09-14T06:56:31;3.30;;;3.00;;
9844;SDS011;4961;50.782;6.080;2022-09-14T06:59:00;3.63;;;3.43;;
9844;SDS011;4961;50.782;6.080;2022-09-14T07:01:30;3.50;;;3.30;;
9844;SDS011;4961;50.782;6.080;2022-09-14T07:03:59;3.93;;;3.73;;
9844;SDS011;4961;50.782;6.080;2022-09-14T07:06:27;3.27;;;3.07;;
9844;SDS011;4961;50.782;6.080;2022-09-14T07:08:57;3.03;;;2.83;;
9844;SDS011;4961;50.782;6.080;2022-09-14T07:11:30;2.40;;;2.30;;
9844;SDS011;4961;50.782;6.080;2022-09-14T07:13:59;3.07;;;2.80;;
9844;SDS011;4961;50.782;6.080;2022-09-14T07:16:28;2.00;;;1.90;;
9844;SDS011;4961;50.782;6.080;2022-09-14T07:19:00;2.03;;;1.93;;
9844;SDS011;4961;50.782;6.080;2022-09-14T07:21:31;2.87;;;1.73;;
9844;SDS011;4961;50.782;6.080;2022-09-14T07:24:01;2.60;;;1.87;;
9844;SDS011;4961;50.782;6.080;2022-09-14T07:26:30;2.23;;;2.03;;
9844;SDS011;4961;50.782;6.080;2022-09-14T07:29:01;2.00;;;1.90;;
9844;SDS011;4961;50.782;6.080;2022-09-14T07:31:34;3.70;;;2.20;;
9844;SDS011;4961;50.782;6.080;2022-09-14T07:34:03;2.53;;;2.10;;
9844;SDS011;4961;50.782;6.080;2022-09-14T07:36:33;2.03;;;1.93;;
9844;SDS011;4961;50.782;6.080;2022-09-14T07:39:03;2.40;;;2.30;;
9844;SDS011;4961;50.782;6.080;2022-09-14T07:41:32;2.87;;;2.57;;
9844;SDS011;4961;50.782;6.080;2022-09-14T07:44:04;2.43;;;2.23;;
9844;SDS011;4961;50.782;6.080;2022-09-14T07:46:37;2.97;;;2.77;;
9844;SDS011;4961;50.782;6.080;2022-09-14T07:49:07;2.60;;;2.50;;
9844;SDS011;4961;50.782;6.080;2022-09-14T07:51:36;3.00;;;2.80;;
9844;SDS011;4961;50.782;6.080;2022-09-14T07:54:06;2.70;;;2.60;;
9844;SDS011;4961;50.782;6.080;2022-09-14T07:56:35;2.80;;;2.60;;
9844;SDS011;4961;50.782;6.080;2022-09-14T07:59:04;3.43;;;3.13;;
9844;SDS011;4961;50.782;6.080;2022-09-14T08:01:53;4.00;;;2.60;;
9844;SDS011;4961;50.782;6.080;2022-09-14T08:04:22;3.27;;;2.97;;
9844;SDS011;4961;50.782;6.080;2022-09-14T08:06:50;3.00;;;2.80;;
9844;SDS011;4961;50.782;6.080;2022-09-14T08:09:18;3.20;;;3.00;;
9844;SDS011;4961;50.782;6.080;2022-09-14T08:11:46;3.40;;;2.57;;
9844;SDS011;4961;50.782;6.080;2022-09-14T08:14:16;3.30;;;2.90;;
9844;SDS011;4961;50.782;6.080;2022-09-14T08:16:44;3.97;;;3.67;;
9844;SDS011;4961;50.782;6.080;2022-09-14T08:19:14;3.10;;;2.90;;
9844;SDS011;4961;50.782;6.080;2022-09-14T08:21:46;3.30;;;3.10;;
9844;SDS011;4961;50.782;6.080;2022-09-14T08:24:16;3.43;;;3.23;;
9844;SDS011;4961;50.782;6.080;2022-09-14T08:26:45;3.60;;;3.30;;
9844;SDS011;4961;50.782;6.080;2022-09-14T08:29:13;3.23;;;3.00;;
9844;SDS011;4961;50.782;6.080;2022-09-14T08:31:43;3.20;;;3.03;;
9844;SDS011;4961;50.782;6.080;2022-09-14T08:34:14;4.17;;;2.93;;
9844;SDS011;4961;50.782;6.080;2022-09-14T08:36:43;6.53;;;3.00;;
9844;SDS011;4961;50.782;6.080;2022-09-14T08:39:13;3.07;;;2.80;;
9844;SDS011;4961;50.782;6.080;2022-09-14T08:41:48;3.47;;;3.27;;
9844;SDS011;4961;50.782;6.080;2022-09-14T08:44:24;3.70;;;3.43;;
9844;SDS011;4961;50.782;6.080;2022-09-14T08:46:58;4.82;;;4.38;;
9844;SDS011;4961;50.782;6.080;2022-09-14T08:49:35;6.50;;;4.77;;
9844;SDS011;4961;50.782;6.080;2022-09-14T08:52:12;4.40;;;3.53;;
9844;SDS011;4961;50.782;6.080;2022-09-14T08:54:51;3.30;;;3.10;;
9844;SDS011;4961;50.782;6.080;2022-09-14T08:57:23;3.67;;;3.40;;
9844;SDS011;4961;50.782;6.080;2022-09-14T08:59:58;3.73;;;3.40;;
9844;SDS011;4961;50.782;6.080;2022-09-14T09:02:47;4.53;;;4.13;;
9844;SDS011;4961;50.782;6.080;2022-09-14T09:05:41;3.80;;;3.60;;
9844;SDS011;4961;50.782;6.080;2022-09-14T09:08:17;4.30;;;4.00;;
9844;SDS011;4961;50.782;6.080;2022-09-14T09:10:51;4.33;;;3.37;;
9844;SDS011;4961;50.782;6.080;2022-09-14T09:13:24;3.40;;;3.20;;
9844;SDS011;4961;50.782;6.080;2022-09-14T09:15:58;3.40;;;3.20;;
9844;SDS011;4961;50.782;6.080;2022-09-14T09:18:31;3.93;;;3.13;;
9844;SDS011;4961;50.782;6.080;2022-09-14T09:21:07;5.60;;;3.80;;
9844;SDS011;4961;50.782;6.080;2022-09-14T09:23:39;4.60;;;4.30;;
9844;SDS011;4961;50.782;6.080;2022-09-14T09:26:10;4.60;;;4.30;;
9844;SDS011;4961;50.782;6.080;2022-09-14T09:28:44;4.93;;;4.53;;
9844;SDS011;4961;50.782;6.080;2022-09-14T09:31:15;5.00;;;4.50;;
9844;SDS011;4961;50.782;6.080;2022-09-14T09:33:45;4.90;;;4.70;;
9844;SDS011;4961;50.782;6.080;2022-09-14T09:36:17;5.77;;;5.27;;
9844;SDS011;4961;50.782;6.080;2022-09-14T09:38:46;5.03;;;4.73;;
9844;SDS011;4961;50.782;6.080;2022-09-14T09:41:15;6.17;;;5.73;;
9844;SDS011;4961;50.782;6.080;2022-09-14T09:43:56;5.03;;;4.63;;
9844;SDS011;4961;50.782;6.080;2022-09-14T09:46:27;5.00;;;4.63;;
9844;SDS011;4961;50.782;6.080;2022-09-14T09:48:58;4.57;;;3.83;;
9844;SDS011;4961;50.782;6.080;2022-09-14T09:51:32;3.63;;;3.33;;
9844;SDS011;4961;50.782;6.080;2022-09-14T09:54:04;4.03;;;3.83;;
9844;SDS011;4961;50.782;6.080;2022-09-14T09:56:37;3.77;;;3.57;;
9844;SDS011;4961;50.782;6.080;2022-09-14T09:59:20;3.60;;;3.40;;
9844;SDS011;4961;50.782;6.080;2022-09-14T10:01:54;3.67;;;3.47;;
9844;SDS011;4961;50.782;6.080;2022-09-14T10:04:26;3.40;;;3.20;;
9844;SDS011;4961;50.782;6.080;2022-09-14T10:06:57;3.37;;;3.17;;
9844;SDS011;4961;50.782;6.080;2022-09-14T10:09:26;3.20;;;3.00;;
9844;SDS011;4961;50.782;6.080;2022-09-14T10:11:56;3.73;;;3.40;;
9844;SDS011;4961;50.782;6.080;2022-09-14T10:14:27;3.33;;;3.03;;
9844;SDS011;4961;50.782;6.080;2022-09-14T10:17:04;4.70;;;3.23;;
9844;SDS011;4961;50.782;6.080;2022-09-14T10:19:34;3.27;;;3.17;;
9844;SDS011;4961;50.782;6.080;2022-09-14T10:22:14;3.30;;;3.10;;
9844;SDS011;4961;50.782;6.080;2022-09-14T10:24:52;2.47;;;2.37;;
9844;SDS011;4961;50.782;6.080;2022-09-14T10:27:30;3.50;;;3.20;;
9844;SDS011;4961;50.782;6.080;2022-09-14T10:30:11;3.03;;;2.87;;
9844;SDS011;4961;50.782;6.080;2022-09-14T10:32:41;2.93;;;2.73;;
9844;SDS011;4961;50.782;6.080;2022-09-14T10:35:13;2.70;;;2.60;;
9844;SDS011;4961;50.782;6.080;2022-09-14T10:37:47;4.97;;;2.77;;
9844;SDS011;4961;50.782;6.080;2022-09-14T10:40:24;4.53;;;3.40;;
9844;SDS011;4961;50.782;6.080;2022-09-14T10:43:02;2.90;;;2.70;;
9844;SDS011;4961;50.782;6.080;2022-09-14T10:45:40;2.73;;;2.63;;
9844;SDS011;4961;50.782;6.080;2022-09-14T10:48:29;4.03;;;3.80;;
9844;SDS011;4961;50.782;6.080;2022-09-14T10:51:21;4.00;;;3.67;;
9844;SDS011;4961;50.782;6.080;2022-09-14T10:54:02;5.73;;;3.57;;
9844;SDS011;4961;50.782;6.080;2022-09-14T10:56:43;4.53;;;3.63;;
9844;SDS011;4961;50.782;6.080;2022-09-14T10:59:25;3.47;;;3.13;;
9844;SDS011;4961;50.782;6.080;2022-09-14T11:02:02;3.97;;;3.67;;
9844;SDS011;4961;50.782;6.080;2022-09-14T11:05:03;4.43;;;4.13;;
9844;SDS011;4961;50.782;6.080;2022-09-14T11:07:40;4.37;;;4.07;;
9844;SDS011;4961;50.782;6.080;2022-09-14T11:10:21;4.63;;;4.10;;
9844;SDS011;4961;50.782;6.080;2022-09-14T11:13:20;4.23;;;4.03;;
9844;SDS011;4961;50.782;6.080;2022-09-14T11:16:19;5.33;;;4.93;;
9844;SDS011;4961;50.782;6.080;2022-09-14T11:19:03;4.23;;;3.93;;
9844;SDS011;4961;50.782;6.080;2022-09-14T11:21:41;4.20;;;4.00;;
9844;SDS011;4961;50.782;6.080;2022-09-14T11:24:16;3.97;;;3.77;;
9844;SDS011;4961;50.782;6.080;2022-09-14T11:26:51;4.27;;;3.87;;
9844;SDS011;4961;50.782;6.080;2022-09-14T11:29:29;4.97;;;4.50;;
9844;SDS011;4961;50.782;6.080;2022-09-14T11:32:04;4.80;;;4.50;;
9844;SDS011;4961;50.782;6.080;2022-09-14T11:34:53;5.20;;;4.90;;
9844;SDS011;4961;50.782;6.080;2022-09-14T11:37:38;6.43;;;5.77;;
9844;SDS011;4961;50.782;6.080;2022-09-14T11:40:13;6.43;;;6.00;;
9844;SDS011;4961;50.782;6.080;2022-09-14T11:42:50;6.33;;;5.80;;
9844;SDS011;4961;50.782;6.080;2022-09-14T11:45:26;5.83;;;5.43;;
9844;SDS011;4961;50.782;6.080;2022-09-14T11:48:00;4.90;;;4.67;;
9844;SDS011;4961;50.782;6.080;2022-09-14T11:50:59;5.63;;;4.97;;
9844;SDS011;4961;50.782;6.080;2022-09-14T11:53:32;4.97;;;4.67;;
9844;SDS011;4961;50.782;6.080;2022-09-14T11:56:03;4.77;;;4.47;;
9844;SDS011;4961;50.782;6.080;2022-09-14T11:58:35;5.07;;;4.47;;
9844;SDS011;4961;50.782;6.080;2022-09-14T12:04:05;4.57;;;4.33;;
9844;SDS011;4961;50.782;6.080;2022-09-14T12:06:45;5.10;;;4.70;;
9844;SDS011;4961;50.782;6.080;2022-09-14T12:12:27;4.93;;;4.73;;
9844;SDS011;4961;50.782;6.080;2022-09-14T12:15:00;5.20;;;4.90;;
9844;SDS011;4961;50.782;6.080;2022-09-14T12:17:32;4.40;;;4.20;;
9844;SDS011;4961;50.782;6.080;2022-09-14T12:23:03;5.23;;;4.73;;
9844;SDS011;4961;50.782;6.080;2022-09-14T12:25:33;4.70;;;4.40;;
9844;SDS011;4961;50.782;6.080;2022-09-14T12:31:07;5.70;;;5.30;;
9844;SDS011;4961;50.782;6.080;2022-09-14T12:33:40;5.10;;;4.70;;
9844;SDS011;4961;50.782;6.080;2022-09-14T12:39:25;7.27;;;6.67;;
9844;SDS011;4961;50.782;6.080;2022-09-14T12:41:59;6.47;;;6.07;;
9844;SDS011;4961;50.782;6.080;2022-09-14T12:44:50;6.53;;;6.07;;
9844;SDS011;4961;50.782;6.080;2022-09-14T12:47:47;7.70;;;6.90;;
9844;SDS011;4961;50.782;6.080;2022-09-14T12:50:17;6.70;;;6.10;;
9844;SDS011;4961;50.782;6.080;2022-09-14T12:52:55;6.83;;;6.23;;
9844;SDS011;4961;50.782;6.080;2022-09-14T12:55:44;6.13;;;5.73;;
9844;SDS011;4961;50.782;6.080;2022-09-14T12:58:26;6.27;;;5.87;;
9844;SDS011;4961;50.782;6.080;2022-09-14T13:01:05;6.70;;;6.30;;
9844;SDS011;4961;50.782;6.080;2022-09-14T13:03:49;6.20;;;5.70;;
9844;SDS011;4961;50.782;6.080;2022-09-14T13:06:19;5.00;;;4.70;;
9844;SDS011;4961;50.782;6.080;2022-09-14T13:08:50;6.03;;;5.63;;
9844;SDS011;4961;50.782;6.080;2022-09-14T13:11:22;5.47;;;5.07;;
9844;SDS011;4961;50.782;6.080;2022-09-14T13:13:54;6.00;;;5.47;;
9844;SDS011;4961;50.782;6.080;2022-09-14T13:16:29;6.50;;;5.90;;
9844;SDS011;4961;50.782;6.080;2022-09-14T13:19:15;7.13;;;5.80;;
9844;SDS011;4961;50.782;6.080;2022-09-14T13:21:47;5.50;;;5.20;;
9844;SDS011;4961;50.782;6.080;2022-09-14T13:24:21;6.17;;;5.57;;
9844;SDS011;4961;50.782;6.080;2022-09-14T13:26:52;4.20;;;3.90;;
9844;SDS011;4961;50.782;6.080;2022-09-14T13:29:23;4.80;;;4.50;;
9844;SDS011;4961;50.782;6.080;2022-09-14T13:31:52;4.17;;;3.97;;
9844;SDS011;4961;50.782;6.080;2022-09-14T13:34:30;4.50;;;4.20;;
9844;SDS011;4961;50.782;6.080;2022-09-14T13:37:01;6.70;;;4.73;;
9844;SDS011;4961;50.782;6.080;2022-09-14T13:39:32;3.50;;;3.20;;
9844;SDS011;4961;50.782;6.080;2022-09-14T13:42:02;3.93;;;2.20;;
9844;SDS011;4961;50.782;6.080;2022-09-14T13:44:32;2.50;;;2.30;;
9844;SDS011;4961;50.782;6.080;2022-09-14T13:47:03;2.57;;;2.10;;
9844;SDS011;4961;50.782;6.080;2022-09-14T13:49:34;2.57;;;2.37;;
9844;SDS011;4961;50.782;6.080;2022-09-14T13:55:16;2.13;;;1.97;;
9844;SDS011;4961;50.782;6.080;2022-09-14T13:58:09;2.73;;;2.27;;
9844;SDS011;4961;50.782;6.080;2022-09-14T14:00:47;2.57;;;2.37;;
9844;SDS011;4961;50.782;6.080;2022-09-14T14:03:28;2.50;;;1.97;;
9844;SDS011;4961;50.782;6.080;2022-09-14T14:06:01;3.10;;;2.50;;
9844;SDS011;4961;50.782;6.080;2022-09-14T14:08:44;2.33;;;2.13;;
9844;SDS011;4961;50.782;6.080;2022-09-14T14:11:25;2.83;;;2.50;;
9844;SDS011;4961;50.782;6.080;2022-09-14T14:13:54;3.70;;;2.20;;
9844;SDS011;4961;50.782;6.080;2022-09-14T14:16:24;2.87;;;2.63;;
9844;SDS011;4961;50.782;6.080;2022-09-14T14:18:53;2.70;;;2.50;;
9844;SDS011;4961;50.782;6.080;2022-09-14T14:21:28;3.27;;;2.97;;
9844;SDS011;4961;50.782;6.080;2022-09-14T14:24:16;4.17;;;3.23;;
9844;SDS011;4961;50.782;6.080;2022-09-14T14:26:53;3.97;;;2.27;;
9844;SDS011;4961;50.782;6.080;2022-09-14T14:29:23;4.47;;;3.30;;
9844;SDS011;4961;50.782;6.080;2022-09-14T14:31:53;3.53;;;2.90;;
9844;SDS011;4961;50.782;6.080;2022-09-14T14:34:24;3.47;;;3.17;;
9844;SDS011;4961;50.782;6.080;2022-09-14T14:36:55;3.93;;;2.60;;
9844;SDS011;4961;50.782;6.080;2022-09-14T14:39:24;2.60;;;2.30;;
9844;SDS011;4961;50.782;6.080;2022-09-14T14:41:52;4.10;;;2.33;;
9844;SDS011;4961;50.782;6.080;2022-09-14T14:44:29;4.83;;;3.23;;
9844;SDS011;4961;50.782;6.080;2022-09-14T14:46:59;3.43;;;3.13;;
9844;SDS011;4961;50.782;6.080;2022-09-14T14:49:27;4.73;;;3.40;;
9844;SDS011;4961;50.782;6.080;2022-09-14T14:52:00;3.53;;;3.23;;
9844;SDS011;4961;50.782;6.080;2022-09-14T14:54:32;2.80;;;2.60;;
9844;SDS011;4961;50.782;6.080;2022-09-14T14:57:01;2.53;;;2.40;;
9844;SDS011;4961;50.782;6.080;2022-09-14T14:59:31;3.70;;;3.10;;
9844;SDS011;4961;50.782;6.080;2022-09-14T15:02:00;6.30;;;2.77;;
9844;SDS011;4961;50.782;6.080;2022-09-14T15:04:30;3.27;;;3.07;;
9844;SDS011;4961;50.782;6.080;2022-09-14T15:07:00;4.17;;;3.77;;
9844;SDS011;4961;50.782;6.080;2022-09-14T15:09:29;3.13;;;2.93;;
9844;SDS011;4961;50.782;6.080;2022-09-14T15:11:58;3.60;;;3.30;;
9844;SDS011;4961;50.782;6.080;2022-09-14T15:14:27;3.77;;;3.47;;
9844;SDS011;4961;50.782;6.080;2022-09-14T15:16:57;7.00;;;4.30;;
9844;SDS011;4961;50.782;6.080;2022-09-14T15:19:28;6.67;;;4.67;;
9844;SDS011;4961;50.782;6.080;2022-09-14T15:21:57;4.90;;;4.50;;
9844;SDS011;4961;50.782;6.080;2022-09-14T15:24:29;5.07;;;4.67;;
9844;SDS011;4961;50.782;6.080;2022-09-14T15:26:57;4.30;;;4.10;;
9844;SDS011;4961;50.782;6.080;2022-09-14T15:29:25;4.97;;;4.60;;
9844;SDS011;4961;50.782;6.080;2022-09-14T15:31:54;5.77;;;5.27;;
9844;SDS011;4961;50.782;6.080;2022-09-14T15:34:23;6.77;;;6.20;;
9844;SDS011;4961;50.782;6.080;2022-09-14T15:36:51;8.23;;;5.87;;
9844;SDS011;4961;50.782;6.080;2022-09-14T15:39:22;6.10;;;5.80;;
9844;SDS011;4961;50.782;6.080;2022-09-14T15:41:55;6.33;;;5.93;;
9844;SDS011;4961;50.782;6.080;2022-09-14T15:44:24;7.53;;;6.70;;
9844;SDS011;4961;50.782;6.080;2022-09-14T15:46:52;7.93;;;7.13;;
9844;SDS011;4961;50.782;6.080;2022-09-14T15:49:23;8.13;;;7.30;;
9844;SDS011;4961;50.782;6.080;2022-09-14T15:51:53;14.30;;;8.43;;
9844;SDS011;4961;50.782;6.080;2022-09-14T15:54:23;8.43;;;7.63;;
9844;SDS011;4961;50.782;6.080;2022-09-14T15:56:58;8.37;;;7.77;;
9844;SDS011;4961;50.782;6.080;2022-09-14T15:59:27;10.00;;;8.80;;